メインページ
METAR-TAF:

METAR-TAF

空港 :

名古屋, 日本

中部国際空港

緯度: 34-51-30N, 経度: 136-48-19E, 海抜: 5m

現時点の気象観測

当レポートは43分前の23:00(UTC)に作成
西/北西の風 8kt
気温 4°C
湿度 70%
気圧 1023 hPa
視程10km以上
高度4000ftの雲はほとんどない
千切れ雲あり

METAR: RJGG 182300Z 29008KT 9999 FEW040 BKN/// 04/M01 Q1023 NOSIG

時間: 08:43 (23:43 UTC)

予報

当レポートは38分前の23:05(UTC)に作成
予報は19日の 00時(UTC)から 20日の 06時(UTC)まで有効
北/北西の風 10kt
視程10km以上
高度3000ftの雲はほとんどない

TAF: RJGG 182305Z 1900/2006 33010KT 9999 FEW030

4,000以上の空港の気象観測と天気予報(METAR報とTAF報)

利用可能な観測所は地図上に黄色い丸と赤い丸で示す。

丸の上にカーソルを重ねると観測所名を参照できる。

次にクリックすると気象観測と天気予報を参照できる。

マップの切り替え:黒色「×」印の緑ボタンをクリックして拡大、「-」印の緑ボタンをクリックして縮小、緑色の三角印をクリックして隣りの地図に切り替え


METAR-TAF: